Time;durP1;ratioP1;P1;durP2;ratioP2;P2;SDS_P1;SDS_P2;PMS_P1;PMS_P2;Temp;Humidity;BMP_temperature;BMP_pressure;BME280_temperature;BME280_humidity;BME280_pressure;Samples;Min_cycle;Max_cycle;Signal;HPM_P1;HPM_P2
2021/12/27 00:01:34;;;;;;;50.15;21.17;;;0.10;74.30;;;-1.00;60.68;94230.00;5020850;28;20715;-89
2021/12/27 00:04:02;;;;;;;42.80;19.75;;;0.10;74.40;;;-0.99;60.55;94228.22;5021383;28;20658;-88
2021/12/27 00:06:30;;;;;;;46.05;19.75;;;0.10;74.40;;;-0.98;60.73;94222.94;5038255;28;20219;-88
2021/12/27 00:08:57;;;;;;;47.05;19.67;;;0.20;74.40;;;-0.98;60.42;94220.38;5037941;28;20648;-88
2021/12/27 00:11:26;;;;;;;56.15;22.20;;;0.20;74.50;;;-0.99;60.50;94210.19;5034326;28;20251;-89
2021/12/27 00:13:53;;;;;;;47.45;20.58;;;0.20;74.50;;;-1.03;60.50;94201.94;5051150;28;20204;-88
2021/12/27 00:16:21;;;;;;;51.72;20.80;;;0.20;74.50;;;-1.02;60.42;94203.56;5037038;28;20224;-88
2021/12/27 00:18:48;;;;;;;48.83;21.73;;;0.20;74.50;;;-0.94;60.78;94218.34;5037852;28;20681;-89
2021/12/27 00:21:15;;;;;;;48.63;20.65;;;0.20;74.50;;;-0.95;60.52;94219.28;5037909;28;20228;-89
2021/12/27 00:23:42;;;;;;;51.80;21.60;;;0.20;74.50;;;-0.93;60.63;94211.41;5020615;28;20211;-88
2021/12/27 00:26:10;;;;;;;47.13;20.10;;;0.20;74.50;;;-0.92;60.66;94207.91;5031925;28;20549;-87
2021/12/27 00:28:37;;;;;;;51.92;21.98;;;0.20;74.50;;;-0.96;60.78;94199.63;5036060;28;20200;-89
2021/12/27 00:31:05;;;;;;;49.45;20.05;;;0.20;74.60;;;-0.97;61.05;94198.81;5036190;28;20659;-88
2021/12/27 00:33:33;;;;;;;52.83;21.80;;;0.20;74.50;;;-0.91;60.81;94196.66;5018873;28;20302;-88
2021/12/27 00:36:00;;;;;;;51.95;21.48;;;0.20;74.60;;;-0.90;60.83;94199.06;5040216;28;20200;-87
2021/12/27 00:38:27;;;;;;;48.80;20.63;;;0.20;74.50;;;-0.89;60.85;94197.31;5020191;28;20204;-88
2021/12/27 00:40:55;;;;;;;48.90;21.13;;;0.20;74.60;;;-0.89;60.77;94184.44;5036948;28;20238;-88
2021/12/27 00:43:22;;;;;;;45.05;21.55;;;0.20;74.60;;;-0.88;60.81;94197.19;5032160;28;20207;-88
2021/12/27 00:45:49;;;;;;;47.13;22.55;;;0.30;74.70;;;-0.86;61.00;94202.19;5035041;28;20224;-87
2021/12/27 00:48:17;;;;;;;53.17;21.90;;;0.30;74.70;;;-0.87;60.91;94201.34;5016493;28;20670;-88
2021/12/27 00:50:45;;;;;;;42.88;19.55;;;0.30;74.70;;;-0.85;60.96;94199.47;5035376;28;20216;-87
2021/12/27 00:53:13;;;;;;;45.58;21.65;;;0.40;74.80;;;-0.91;60.94;94184.56;5036192;28;20339;-88
2021/12/27 00:55:40;;;;;;;51.28;21.58;;;0.30;74.70;;;-0.85;61.04;94186.59;5033611;28;20586;-88
2021/12/27 00:58:08;;;;;;;50.30;22.65;;;0.30;74.70;;;-0.83;61.37;94191.59;5017570;28;20185;-88
2021/12/27 01:00:36;;;;;;;46.45;20.77;;;0.30;74.70;;;-0.88;61.41;94183.50;5028951;28;20234;-88
2021/12/27 01:03:03;;;;;;;50.60;21.45;;;0.30;74.70;;;-0.86;60.95;94187.53;5035716;28;20330;-89
2021/12/27 01:05:32;;;;;;;50.63;21.85;;;0.30;74.70;;;-0.89;60.88;94174.97;5035324;28;20216;-89
2021/12/27 01:07:59;;;;;;;47.17;21.48;;;0.30;74.70;;;-0.83;60.97;94183.88;5018424;28;20242;-89
2021/12/27 01:15:49;;;;;;;48.92;21.48;;;0.30;74.70;;;-0.83;61.15;94181.28;5035257;28;20303;-88
2021/12/27 01:18:19;;;;;;;54.22;22.83;;;0.30;74.70;;;-0.84;61.08;94180.50;5035413;28;20207;-89
2021/12/27 01:20:47;;;;;;;57.17;25.10;;;0.30;74.80;;;-0.86;61.41;94177.25;5068064;28;20286;-88
2021/12/27 01:23:14;;;;;;;48.63;21.15;;;0.30;74.80;;;-0.86;61.26;94177.25;5030316;28;20266;-88
2021/12/27 01:25:42;;;;;;;58.20;21.92;;;0.30;74.80;;;-0.84;61.28;94177.91;5049601;28;20649;-89
2021/12/27 01:28:09;;;;;;;50.58;23.00;;;0.30;74.80;;;-0.83;61.23;94182.13;5034715;28;20211;-89
2021/12/27 01:30:45;;;;;;;49.88;20.85;;;0.40;74.90;;;-0.82;61.34;94178.59;5028920;28;20212;-89
2021/12/27 01:33:18;;;;;;;52.13;22.20;;;0.30;74.90;;;-0.88;61.10;94173.19;5025469;28;20241;-88
2021/12/27 01:35:47;;;;;;;54.35;22.17;;;0.30;74.90;;;-0.79;61.19;94177.50;5062122;28;20227;-88
2021/12/27 01:38:15;;;;;;;52.20;22.67;;;0.30;75.00;;;-0.80;61.21;94181.03;5027080;28;20191;-88
2021/12/27 01:40:47;;;;;;;55.08;22.75;;;0.40;75.00;;;-0.83;61.38;94176.97;5033502;28;20231;-88
2021/12/27 01:43:27;;;;;;;61.67;23.73;;;0.30;74.90;;;-0.78;61.22;94188.59;5025993;28;20227;-88
2021/12/27 01:46:00;;;;;;;53.33;23.08;;;0.40;75.10;;;-0.76;61.26;94189.28;5028851;28;20214;-88
2021/12/27 01:48:33;;;;;;;55.65;23.83;;;0.40;75.00;;;-0.77;61.49;94185.88;5041902;28;20194;-88
2021/12/27 01:51:04;;;;;;;57.38;24.08;;;0.40;75.00;;;-0.77;61.54;94183.31;5040235;28;20216;-89
2021/12/27 01:53:33;;;;;;;54.60;23.63;;;0.40;75.10;;;-0.77;61.56;94185.88;5013113;28;20200;-88
2021/12/27 01:56:03;;;;;;;60.22;24.80;;;0.40;75.00;;;-0.79;61.37;94177.50;5013054;28;20216;-89
2021/12/27 01:58:31;;;;;;;56.75;23.15;;;0.40;75.00;;;-0.78;61.44;94179.13;5034609;28;20189;-88
2021/12/27 02:01:06;;;;;;;60.22;25.67;;;0.40;75.00;;;-0.82;61.65;94177.78;5050385;28;20235;-89
2021/12/27 02:03:35;;;;;;;53.50;22.38;;;0.40;75.00;;;-0.78;61.51;94181.72;5034582;28;20491;-89
2021/12/27 02:06:06;;;;;;;54.95;22.52;;;0.40;75.00;;;-0.79;61.49;94184.41;5034398;28;20239;-89
2021/12/27 02:08:36;;;;;;;59.40;22.23;;;0.40;75.00;;;-0.82;61.64;94181.19;5034145;28;20235;-89
2021/12/27 02:11:05;;;;;;;53.00;22.48;;;0.40;75.00;;;-0.81;61.37;94175.09;5018959;28;20228;-88
2021/12/27 02:13:33;;;;;;;57.53;24.27;;;0.40;75.00;;;-0.76;61.69;94191.88;5019462;28;20207;-89
2021/12/27 02:16:00;;;;;;;54.00;22.77;;;0.40;75.00;;;-0.82;61.71;94178.59;5034278;28;20380;-88
2021/12/27 02:18:28;;;;;;;54.90;22.38;;;0.40;75.00;;;-0.74;61.40;94177.09;5035462;28;20200;-88
2021/12/27 02:20:55;;;;;;;60.83;23.38;;;0.40;75.00;;;-0.75;61.41;94171.13;5051010;28;20315;-89
2021/12/27 02:23:23;;;;;;;52.03;22.30;;;0.40;75.00;;;-0.77;61.37;94185.88;5050258;28;20384;-89
2021/12/27 02:25:51;;;;;;;53.33;22.10;;;0.40;75.00;;;-0.75;61.27;94188.34;5033710;28;20224;-89
2021/12/27 02:28:20;;;;;;;57.92;23.55;;;0.40;75.00;;;-0.75;61.58;94190.91;5017802;28;20269;-89
2021/12/27 02:30:52;;;;;;;52.75;22.92;;;0.40;75.00;;;-0.79;61.52;94172.34;5034340;28;20231;-89
2021/12/27 02:33:19;;;;;;;64.20;24.83;;;0.40;75.10;;;-0.75;61.48;94184.00;5018415;28;20258;-88
2021/12/27 02:35:50;;;;;;;55.97;23.15;;;0.40;75.00;;;-0.78;61.60;94173.16;5018080;28;20216;-88
2021/12/27 02:38:22;;;;;;;55.30;21.95;;;0.40;75.10;;;-0.75;61.83;94175.47;5035858;28;20235;-88
2021/12/27 02:40:51;;;;;;;68.35;24.50;;;0.40;75.10;;;-0.74;61.82;94177.09;5015369;28;20222;-89
2021/12/27 02:43:22;;;;;;;61.97;26.02;;;0.40;75.10;;;-0.70;61.50;94178.41;5050251;28;20475;-88
2021/12/27 02:46:02;;;;;;;57.55;23.60;;;0.40;75.20;;;-0.75;61.86;94175.47;5052362;28;20220;-88
2021/12/27 02:48:45;;;;;;;62.83;24.88;;;0.40;75.20;;;-0.70;61.68;94186.16;5036037;28;20634;-88
2021/12/27 02:51:14;;;;;;;63.47;24.55;;;0.40;75.20;;;-0.68;61.77;94184.25;5036258;28;20219;-89
2021/12/27 02:53:44;;;;;;;61.92;25.75;;;0.50;75.20;;;-0.67;61.38;94185.88;5034262;28;20596;-89
2021/12/27 02:56:11;;;;;;;56.47;23.95;;;0.40;75.10;;;-0.67;61.55;94186.69;5019583;28;20223;-89
2021/12/27 02:58:39;;;;;;;62.05;24.27;;;0.50;75.20;;;-0.68;61.74;94179.91;5035350;28;20204;-89
2021/12/27 03:01:19;;;;;;;45.08;20.02;;;0.50;75.30;;;-0.66;61.61;94177.19;5034717;28;20693;-88
2021/12/27 03:03:47;;;;;;;52.97;22.63;;;0.40;75.20;;;-0.66;61.63;94174.59;5019431;28;20215;-88
2021/12/27 03:06:14;;;;;;;56.53;23.02;;;0.50;75.20;;;-0.71;61.92;94159.59;5035237;28;20219;-89
2021/12/27 03:08:46;;;;;;;53.03;22.40;;;0.50;75.20;;;-0.66;61.70;94161.72;5018894;28;20258;-88
2021/12/27 03:11:13;;;;;;;57.70;21.98;;;0.50;75.20;;;-0.68;61.95;94159.31;5035053;28;20216;-89
2021/12/27 03:13:48;;;;;;;58.30;22.60;;;0.50;75.20;;;-0.68;61.89;94167.03;5036426;28;20200;-89
2021/12/27 03:16:18;;;;;;;53.00;22.35;;;0.50;75.30;;;-0.71;62.03;94154.44;5055860;28;20219;-88
2021/12/27 03:18:52;;;;;;;54.03;24.15;;;0.50;75.30;;;-0.74;62.09;94153.91;5038149;28;20196;-89
2021/12/27 03:21:20;;;;;;;51.22;21.20;;;0.50;75.30;;;-0.73;62.11;94150.38;5038992;28;20743;-89
2021/12/27 03:23:50;;;;;;;58.25;23.10;;;0.40;75.20;;;-0.70;62.02;94166.34;5038699;28;20314;-88
2021/12/27 03:26:19;;;;;;;44.88;20.92;;;0.40;75.30;;;-0.76;61.76;94142.94;5022322;28;20223;-89
2021/12/27 03:28:46;;;;;;;56.70;23.77;;;0.50;75.30;;;-0.69;62.21;94142.22;5021489;28;20729;-89
2021/12/27 03:31:15;;;;;;;49.58;22.05;;;0.50;75.30;;;-0.69;61.95;94131.91;5016321;28;20243;-88
2021/12/27 03:33:42;;;;;;;50.05;21.50;;;0.50;75.30;;;-0.75;61.85;94121.41;5030734;28;20199;-89
2021/12/27 03:36:12;;;;;;;45.92;21.35;;;0.40;75.20;;;-0.67;61.93;94142.91;5021563;28;20694;-89
2021/12/27 03:38:52;;;;;;;49.55;20.85;;;0.40;75.20;;;-0.67;62.01;94140.31;5045635;28;20195;-89
2021/12/27 03:41:23;;;;;;;47.60;21.45;;;0.50;75.40;;;-0.66;61.85;94146.28;5037435;28;20207;-89
2021/12/27 03:43:51;;;;;;;44.58;21.42;;;0.50;75.30;;;-0.65;61.87;94143.59;5020740;28;20216;-88
2021/12/27 03:46:18;;;;;;;51.80;20.40;;;0.50;76.10;;;-0.69;61.81;94138.84;5053422;28;20759;-88
2021/12/27 03:48:45;;;;;;;51.90;23.00;;;0.50;75.30;;;-0.66;61.58;94144.53;5036353;28;20555;-88
2021/12/27 03:51:13;;;;;;;50.85;23.48;;;0.50;75.30;;;-0.66;61.74;94144.53;5035895;28;20220;-89
2021/12/27 03:53:41;;;;;;;56.33;24.58;;;0.50;75.30;;;-0.67;61.51;94150.63;5052855;28;20196;-89
2021/12/27 03:56:09;;;;;;;52.88;22.55;;;0.50;75.20;;;-0.67;61.87;94160.13;5036157;28;20228;-88
2021/12/27 03:58:57;;;;;;;54.42;24.15;;;0.50;75.20;;;-0.70;61.85;94165.56;5020114;28;20230;-89
2021/12/27 04:01:26;;;;;;;51.95;21.77;;;0.50;75.30;;;-0.67;61.71;94165.28;5032849;28;20193;-89
2021/12/27 04:03:56;;;;;;;47.53;21.40;;;0.50;75.40;;;-0.67;61.85;94166.06;5031515;28;20698;-89
2021/12/27 04:06:25;;;;;;;42.40;20.52;;;0.50;75.40;;;-0.69;61.93;94151.72;5028654;28;20255;-89
2021/12/27 04:08:53;;;;;;;51.47;22.20;;;0.40;75.40;;;-0.67;61.96;94149.84;5030653;28;20292;-88
2021/12/27 04:11:20;;;;;;;49.80;22.17;;;0.50;75.40;;;-0.62;61.76;94168.22;5034826;28;20256;-87
2021/12/27 04:13:47;;;;;;;52.05;20.98;;;0.50;75.40;;;-0.60;61.86;94162.94;5018252;28;20243;-88
2021/12/27 04:16:14;;;;;;;56.80;24.23;;;0.50;75.40;;;-0.59;61.80;94164.56;5036055;28;20232;-89
2021/12/27 04:18:42;;;;;;;55.63;22.77;;;0.50;75.40;;;-0.59;61.92;94157.63;5051760;28;20212;-89
2021/12/27 04:21:09;;;;;;;53.08;21.45;;;0.50;75.40;;;-0.57;61.94;94153.16;5035525;28;20307;-89
2021/12/27 04:23:36;;;;;;;54.58;21.77;;;0.50;75.40;;;-0.56;61.81;94149.63;5019718;28;20251;-88
2021/12/27 04:26:04;;;;;;;56.67;23.50;;;0.50;75.40;;;-0.57;62.20;94142.84;5034315;28;20223;-88
2021/12/27 04:28:31;;;;;;;65.95;24.58;;;0.50;75.30;;;-0.58;62.05;94145.59;5035978;28;20191;-89
2021/12/27 04:30:58;;;;;;;59.42;24.63;;;0.60;75.40;;;-0.58;62.01;94143.00;5035116;28;20231;-87
2021/12/27 04:33:26;;;;;;;75.80;28.00;;;0.60;75.40;;;-0.61;62.46;94143.28;5035543;28;20657;-89
2021/12/27 04:35:53;;;;;;;59.75;24.98;;;0.50;75.40;;;-0.63;62.17;94140.03;5052430;28;20574;-89
2021/12/27 04:38:20;;;;;;;58.38;24.92;;;0.60;75.40;;;-0.66;62.13;94136.81;5035361;28;20215;-88
2021/12/27 04:40:51;;;;;;;60.53;25.23;;;0.50;75.40;;;-0.67;62.25;94145.47;5035881;28;20230;-89
2021/12/27 04:43:22;;;;;;;62.17;26.50;;;0.50;75.40;;;-0.72;62.38;94136.53;5021402;28;20222;-89
2021/12/27 04:45:51;;;;;;;61.92;25.20;;;0.50;75.40;;;-0.69;62.14;94137.06;5021079;28;20216;-89
2021/12/27 04:48:20;;;;;;;60.25;25.65;;;0.50;75.40;;;-0.73;62.10;94140.06;5054165;28;20303;-88
2021/12/27 04:50:47;;;;;;;57.78;25.77;;;0.50;76.20;;;-0.70;62.04;94139.78;5068657;28;20227;-89
2021/12/27 04:53:15;;;;;;;64.45;25.10;;;0.50;75.40;;;-0.69;62.07;94133.69;5070852;28;20230;-88
2021/12/27 04:55:44;;;;;;;60.65;24.52;;;0.50;75.50;;;-0.68;61.99;94137.91;5070057;28;20212;-88
2021/12/27 04:58:17;;;;;;;64.40;25.08;;;0.50;75.40;;;-0.68;61.89;94135.31;5069211;28;20203;-88
2021/12/27 05:00:51;;;;;;;65.63;26.30;;;0.50;75.50;;;-0.70;62.14;94132.88;5054978;28;20230;-89
2021/12/27 05:03:19;;;;;;;66.78;27.02;;;0.50;75.50;;;-0.71;62.23;94131.28;5054009;28;20314;-88
2021/12/27 05:05:47;;;;;;;60.80;26.10;;;0.50;75.50;;;-0.76;62.20;94120.56;5036747;28;20226;-89
2021/12/27 05:08:15;;;;;;;61.63;26.08;;;0.50;75.50;;;-0.68;62.31;94130.97;5037025;28;20703;-88
2021/12/27 05:10:45;;;;;;;60.25;24.50;;;0.50;75.50;;;-0.68;62.08;94135.31;5021177;28;20240;-88
2021/12/27 05:13:12;;;;;;;51.97;24.20;;;0.50;75.50;;;-0.68;62.00;94130.19;5020691;28;20224;-88
2021/12/27 05:15:39;;;;;;;54.67;24.27;;;0.50;75.50;;;-0.67;62.07;94124.88;5020025;28;20224;-88
2021/12/27 05:18:07;;;;;;;55.20;25.30;;;0.50;75.50;;;-0.66;62.13;94128.25;5036716;28;20192;-87
2021/12/27 05:20:34;;;;;;;51.30;24.35;;;0.50;75.40;;;-0.74;62.06;94123.81;5036328;28;20234;-88
2021/12/27 05:23:01;;;;;;;55.08;25.20;;;0.40;75.40;;;-0.70;62.23;94134.66;5053281;28;20228;-88
2021/12/27 05:25:28;;;;;;;56.13;24.75;;;0.50;75.40;;;-0.68;62.16;94140.47;5036048;28;20754;-87
2021/12/27 05:27:55;;;;;;;60.47;26.13;;;0.40;75.40;;;-0.68;62.05;94133.56;5019047;28;20277;-87
2021/12/27 05:30:23;;;;;;;55.90;24.55;;;0.40;75.40;;;-0.74;61.83;94126.41;5036448;28;20227;-88
2021/12/27 05:32:50;;;;;;;55.80;25.02;;;0.50;75.40;;;-0.68;61.89;94141.28;5036110;28;20676;-88
2021/12/27 05:35:17;;;;;;;62.30;25.05;;;0.50;75.50;;;-0.72;62.17;94139.94;5019370;28;20282;-88
2021/12/27 05:37:45;;;;;;;56.10;24.05;;;0.40;75.40;;;-0.70;62.03;94142.38;5052990;28;20707;-88
2021/12/27 05:40:18;;;;;;;53.33;25.02;;;0.50;75.50;;;-0.66;62.04;94149.69;5036301;28;20718;-87
2021/12/27 05:42:46;;;;;;;70.68;28.92;;;0.50;75.60;;;-0.71;61.95;94136.44;5036132;28;20318;-87
2021/12/27 05:45:13;;;;;;;60.60;27.88;;;0.50;75.50;;;-0.68;61.84;94143.06;5034188;28;20225;-89
2021/12/27 05:47:41;;;;;;;82.78;29.63;;;0.50;75.50;;;-0.66;62.38;94139.38;5032956;28;20206;-87
2021/12/27 05:50:09;;;;;;;69.57;29.73;;;0.50;75.50;;;-0.66;62.07;94144.53;5016472;28;20216;-87
2021/12/27 05:52:37;;;;;;;68.43;28.25;;;0.50;75.50;;;-0.67;62.19;94132.59;5049311;28;20204;-86
2021/12/27 05:55:06;;;;;;;61.05;26.63;;;0.50;75.50;;;-0.64;62.00;94141.81;5032470;28;20251;-88
2021/12/27 05:57:34;;;;;;;74.97;30.15;;;0.50;75.60;;;-0.65;62.30;94135.84;5032468;28;20596;-89
2021/12/27 06:00:05;;;;;;;74.88;30.13;;;0.50;75.50;;;-0.63;62.32;94134.88;5016106;28;20217;-88
2021/12/27 06:02:41;;;;;;;63.45;28.58;;;0.50;75.50;;;-0.64;62.29;94128.94;5017280;28;20209;-88
2021/12/27 06:05:09;;;;;;;71.55;29.42;;;0.50;75.50;;;-0.64;62.20;94128.94;5060393;28;20769;-89
2021/12/27 06:07:36;;;;;;;73.90;30.90;;;0.50;75.50;;;-0.63;62.19;94127.97;5036113;28;20200;-89
2021/12/27 06:10:05;;;;;;;76.95;29.95;;;0.50;75.50;;;-0.63;62.26;94127.16;5052530;28;20709;-88
2021/12/27 06:12:33;;;;;;;70.97;28.75;;;0.50;75.50;;;-0.62;62.17;94133.94;5015561;28;20197;-88
2021/12/27 06:15:00;;;;;;;70.63;28.85;;;0.50;75.60;;;-0.67;62.14;94124.06;5050910;28;20215;-88
2021/12/27 06:17:30;;;;;;;57.67;27.02;;;0.50;75.60;;;-0.63;62.29;94127.97;5034938;28;20656;-88
2021/12/27 06:19:58;;;;;;;59.97;27.10;;;0.50;75.60;;;-0.63;62.11;94135.69;5019160;28;20223;-88
2021/12/27 06:22:25;;;;;;;53.70;25.30;;;0.50;75.50;;;-0.62;62.35;94139.91;5035650;28;20204;-88
2021/12/27 06:24:53;;;;;;;74.15;29.27;;;0.50;75.60;;;-0.64;62.04;94134.06;5035568;28;20219;-88
2021/12/27 06:27:20;;;;;;;65.38;28.88;;;0.50;75.60;;;-0.63;62.25;94127.97;5035675;28;20210;-88
2021/12/27 06:29:47;;;;;;;62.95;27.05;;;0.50;75.60;;;-0.63;62.42;94127.97;5035345;28;20220;-88
2021/12/27 06:32:15;;;;;;;55.15;24.08;;;0.50;75.60;;;-0.63;62.24;94125.41;5035795;28;20202;-88
2021/12/27 06:34:42;;;;;;;56.25;26.38;;;0.50;76.40;;;-0.64;62.51;94121.19;5018760;28;20254;-87
2021/12/27 06:37:09;;;;;;;60.88;25.77;;;0.50;75.60;;;-0.61;62.22;94130.41;5035977;28;20196;-90
2021/12/27 06:39:36;;;;;;;68.15;29.05;;;0.50;75.60;;;-0.67;62.12;94121.50;5018716;28;20224;-89
2021/12/27 06:42:06;;;;;;;70.35;27.98;;;0.50;75.60;;;-0.60;62.40;94116.56;5019171;28;20253;-89
2021/12/27 06:44:35;;;;;;;64.90;27.40;;;0.50;75.50;;;-0.62;62.57;94115.91;5035493;28;20326;-88
2021/12/27 06:47:03;;;;;;;63.08;27.42;;;0.50;75.60;;;-0.67;62.31;94112.00;5033746;28;20499;-86
2021/12/27 06:49:36;;;;;;;72.75;28.08;;;0.50;75.50;;;-0.65;62.34;94115.25;5038033;28;20220;-87
2021/12/27 06:52:04;;;;;;;75.20;29.33;;;0.50;75.60;;;-0.70;62.24;94108.91;5040360;28;20187;-87
2021/12/27 06:54:31;;;;;;;64.80;29.23;;;0.50;75.50;;;-0.67;62.35;94118.94;5038881;28;20299;-88
2021/12/27 06:57:00;;;;;;;68.82;28.65;;;0.50;75.50;;;-0.66;62.15;94113.63;5039734;28;20688;-86
2021/12/27 06:59:28;;;;;;;67.05;29.02;;;0.50;75.60;;;-0.72;62.22;94101.31;5038652;28;20220;-87
2021/12/27 07:01:56;;;;;;;71.70;31.42;;;0.50;75.60;;;-0.66;62.24;94105.91;5056154;28;20215;-86
2021/12/27 07:04:24;;;;;;;75.78;30.30;;;0.50;75.60;;;-0.65;62.43;94110.09;5022457;28;20685;-87
2021/12/27 07:06:51;;;;;;;64.05;29.25;;;0.50;75.70;;;-0.66;62.58;94110.22;5022594;28;20254;-87
2021/12/27 07:09:19;;;;;;;64.30;28.67;;;0.50;75.60;;;-0.64;62.16;94110.91;5039094;28;20212;-87
2021/12/27 07:11:46;;;;;;;63.58;27.73;;;0.50;76.40;;;-0.62;62.34;94124.44;5022496;28;20207;-87
2021/12/27 07:14:14;;;;;;;63.58;27.63;;;0.50;75.70;;;-0.63;62.25;94117.69;5039100;28;20200;-86
2021/12/27 07:16:41;;;;;;;75.78;31.05;;;0.50;75.70;;;-0.64;62.33;94116.03;5035238;28;20192;-88
2021/12/27 07:19:08;;;;;;;66.82;29.30;;;0.50;75.70;;;-0.57;62.47;94132.56;5028658;28;20192;-86
2021/12/27 07:21:35;;;;;;;66.05;29.88;;;0.50;75.70;;;-0.57;62.46;94127.41;5038631;28;20265;-86
2021/12/27 07:24:04;;;;;;;60.95;28.67;;;0.50;76.50;;;-0.55;62.43;94125.50;5055179;28;20244;-86
2021/12/27 07:26:31;;;;;;;68.47;29.75;;;0.50;75.80;;;-0.52;62.52;94122.63;5037865;28;20215;-85
2021/12/27 07:28:59;;;;;;;60.55;27.95;;;0.60;75.80;;;-0.51;62.38;94119.09;5055288;28;20257;-87
2021/12/27 07:31:26;;;;;;;72.57;31.38;;;0.60;75.80;;;-0.50;62.54;94114.75;5037844;28;20200;-87
2021/12/27 07:33:54;;;;;;;65.07;28.73;;;0.60;75.90;;;-0.44;62.57;94111.63;5071306;28;20302;-86
2021/12/27 07:36:22;;;;;;;64.80;29.27;;;0.60;75.90;;;-0.44;62.56;94109.06;5071737;28;20478;-86
2021/12/27 07:38:49;;;;;;;65.88;28.65;;;0.60;75.90;;;-0.38;62.44;94118.78;5037692;28;20685;-86
2021/12/27 07:41:16;;;;;;;65.57;27.77;;;0.60;75.90;;;-0.37;62.36;94117.78;5021939;28;20237;-85
2021/12/27 07:43:44;;;;;;;59.90;26.30;;;0.70;76.00;;;-0.30;62.63;94125.78;5021600;28;20661;-87
2021/12/27 07:46:11;;;;;;;62.55;28.60;;;0.70;76.00;;;-0.27;62.53;94119.50;5038001;28;20216;-85
2021/12/27 07:48:38;;;;;;;60.38;26.98;;;0.70;76.00;;;-0.23;62.31;94133.72;5037774;28;20206;-86
2021/12/27 07:51:05;;;;;;;63.85;27.02;;;0.70;76.00;;;-0.20;62.43;94128.28;5038255;28;20269;-85
2021/12/27 07:53:32;;;;;;;62.60;27.48;;;0.80;76.10;;;-0.15;62.42;94128.66;5071049;28;20202;-85
2021/12/27 07:55:59;;;;;;;63.60;29.30;;;0.90;76.10;;;-0.13;62.33;94126.75;5070488;28;20270;-86
2021/12/27 07:58:26;;;;;;;62.67;29.27;;;0.90;76.10;;;-0.11;62.44;94126.59;5037874;28;20582;-86
2021/12/27 08:00:54;;;;;;;60.72;28.60;;;0.80;76.00;;;-0.07;62.25;94133.91;5038074;28;20226;-86
2021/12/27 08:03:21;;;;;;;63.55;28.88;;;0.90;76.00;;;-0.05;62.53;94123.44;5037058;28;20589;-87
2021/12/27 08:05:49;;;;;;;61.30;28.48;;;0.90;76.10;;;0.01;62.49;94120.28;5037659;28;20623;-86
2021/12/27 08:08:18;;;;;;;62.88;29.02;;;1.00;76.10;;;0.04;62.52;94120.00;5021291;28;20196;-86
2021/12/27 08:10:45;;;;;;;66.20;29.83;;;1.00;76.10;;;0.09;62.63;94110.03;5037701;28;20698;-87
2021/12/27 08:13:14;;;;;;;63.38;29.30;;;1.00;76.10;;;0.14;62.58;94110.41;5037435;28;20219;-86
2021/12/27 08:15:41;;;;;;;67.85;30.17;;;1.00;76.20;;;0.21;62.48;94104.66;5036986;28;20215;-87
2021/12/27 08:18:08;;;;;;;59.85;27.88;;;1.10;76.30;;;0.25;62.34;94104.22;5018361;28;20205;-87
2021/12/27 08:20:35;;;;;;;67.13;29.70;;;1.10;76.30;;;0.28;62.46;94103.94;5024472;28;20639;-87
2021/12/27 08:23:02;;;;;;;65.13;28.35;;;1.20;76.30;;;0.36;62.42;94100.59;5037672;28;20206;-87
2021/12/27 08:25:30;;;;;;;72.07;31.55;;;1.20;76.30;;;0.41;62.47;94100.16;5069818;28;20232;-86
2021/12/27 08:27:57;;;;;;;68.50;29.63;;;1.30;76.40;;;0.52;62.24;94104.28;5068237;28;20208;-87
2021/12/27 08:30:25;;;;;;;64.38;28.33;;;1.30;76.30;;;0.58;62.38;94103.66;5037234;28;20228;-87
2021/12/27 08:32:54;;;;;;;68.28;30.40;;;1.40;76.40;;;0.63;62.50;94110.00;5020144;28;20259;-87
2021/12/27 08:35:21;;;;;;;70.20;29.58;;;1.40;76.40;;;0.72;62.25;94086.81;5034283;28;20271;-87
2021/12/27 08:37:48;;;;;;;64.70;28.65;;;1.50;76.40;;;0.73;62.30;94081.53;5019022;28;20205;-86
2021/12/27 08:40:15;;;;;;;63.67;29.15;;;1.60;76.60;;;0.85;62.63;94091.59;5037190;28;20369;-86
2021/12/27 08:42:43;;;;;;;63.80;28.60;;;1.60;76.50;;;0.95;62.38;94087.94;5036947;28;20621;-86
2021/12/27 08:45:11;;;;;;;66.88;31.20;;;1.70;76.60;;;1.03;62.33;94087.16;5036956;28;20224;-88
2021/12/27 08:47:40;;;;;;;68.05;31.67;;;1.80;76.70;;;1.10;62.27;94090.75;5053258;28;20291;-88
2021/12/27 08:50:08;;;;;;;73.70;33.83;;;1.80;76.60;;;1.15;62.23;94089.47;5052807;28;20227;-88
2021/12/27 08:52:36;;;;;;;72.32;33.90;;;1.90;76.60;;;1.22;62.03;94082.72;5019856;28;20196;-87
2021/12/27 08:55:03;;;;;;;66.97;32.47;;;2.00;76.60;;;1.28;62.12;94093.25;5036610;28;20231;-88
2021/12/27 08:57:34;;;;;;;71.88;31.85;;;2.00;76.60;;;1.32;62.02;94078.25;5035826;28;20958;-86
2021/12/27 09:00:05;;;;;;;62.70;30.83;;;2.10;76.50;;;1.38;62.14;94093.13;5036522;28;20208;-86
2021/12/27 09:02:32;;;;;;;69.65;31.20;;;2.10;76.40;;;1.43;61.93;94096.06;5019660;28;20232;-87
2021/12/27 09:05:00;;;;;;;57.42;29.60;;;2.20;76.40;;;1.51;61.90;94103.03;5036442;28;20755;-86
2021/12/27 09:07:27;;;;;;;68.15;31.02;;;2.20;76.40;;;1.54;61.91;94086.41;5020004;28;20257;-86
2021/12/27 09:09:54;;;;;;;65.10;30.60;;;2.30;76.60;;;1.64;61.84;94102.59;5017153;28;20315;-86
2021/12/27 09:12:21;;;;;;;60.15;28.83;;;2.40;76.50;;;1.70;61.77;94093.41;5035915;28;20254;-86
2021/12/27 09:14:50;;;;;;;59.72;28.80;;;2.40;76.40;;;1.74;61.73;94097.28;5036296;28;20215;-86
2021/12/27 09:17:18;;;;;;;60.38;28.77;;;2.50;76.40;;;1.78;61.60;94095.19;5036570;28;20708;-86
2021/12/27 09:19:46;;;;;;;62.67;31.33;;;2.50;76.20;;;1.77;61.46;94086.66;5032923;28;20221;-86
2021/12/27 09:22:15;;;;;;;59.45;28.95;;;2.50;76.10;;;1.82;61.28;94088.72;5051053;28;20200;-86
2021/12/27 09:24:42;;;;;;;59.20;29.00;;;2.60;76.10;;;1.85;61.09;94081.47;5042886;28;20330;-86
2021/12/27 09:27:09;;;;;;;61.55;29.75;;;2.60;76.10;;;1.91;61.61;94077.44;5018277;28;20208;-86
2021/12/27 09:29:37;;;;;;;57.63;29.45;;;2.70;76.10;;;1.91;61.11;94074.88;5019800;28;20314;-87
2021/12/27 09:32:04;;;;;;;58.20;30.30;;;2.70;76.00;;;1.97;60.98;94078.59;5017408;28;20200;-86
2021/12/27 09:34:32;;;;;;;55.78;28.35;;;2.70;75.90;;;1.98;61.13;94073.25;5052713;28;20247;-88
2021/12/27 09:36:59;;;;;;;61.78;30.42;;;2.80;75.80;;;1.98;60.68;94075.84;5018990;28;20283;-87
2021/12/27 09:39:26;;;;;;;54.53;27.48;;;2.80;75.80;;;1.97;61.03;94076.81;5032487;28;20217;-87
2021/12/27 09:41:53;;;;;;;55.78;28.42;;;2.80;75.60;;;1.95;60.47;94068.41;5061945;28;20199;-88
2021/12/27 09:44:20;;;;;;;54.42;28.90;;;2.80;75.50;;;1.94;60.80;94065.97;5068696;28;20314;-87
2021/12/27 09:46:51;;;;;;;59.05;28.42;;;2.80;75.50;;;1.94;60.80;94064.19;5035235;28;20246;-88
2021/12/27 09:49:20;;;;;;;55.17;26.90;;;2.80;75.50;;;1.94;60.82;94061.59;5034727;28;20239;-86
2021/12/27 09:51:49;;;;;;;57.70;29.13;;;2.80;75.50;;;1.95;60.72;94058.03;5035588;28;20188;-88
2021/12/27 09:54:16;;;;;;;62.53;29.92;;;2.80;75.50;;;1.96;61.11;94053.69;5035899;28;20196;-88
2021/12/27 09:56:44;;;;;;;60.55;29.20;;;2.80;75.50;;;1.98;61.10;94052.56;5033330;28;20552;-87
2021/12/27 09:59:11;;;;;;;52.58;28.13;;;2.80;75.60;;;2.03;60.78;94046.91;5004079;28;20605;-88
2021/12/27 10:01:39;;;;;;;58.95;29.33;;;2.90;75.50;;;1.98;60.74;94036.22;5035900;28;20196;-88
2021/12/27 10:04:07;;;;;;;62.42;31.33;;;2.90;75.40;;;1.95;60.87;94034.78;5035398;28;20224;-88
2021/12/27 10:06:34;;;;;;;55.17;28.52;;;2.80;75.40;;;2.02;60.57;94040.13;5035988;28;20232;-88
2021/12/27 10:09:05;;;;;;;60.30;29.00;;;2.90;75.40;;;1.99;60.92;94038.69;5015074;28;20200;-88
2021/12/27 10:11:37;;;;;;;59.15;30.70;;;2.90;75.40;;;2.05;60.61;94040.63;5047774;28;20603;-88
2021/12/27 10:14:10;;;;;;;57.20;28.55;;;2.90;75.40;;;2.04;60.66;94039.00;5044216;28;20656;-89
2021/12/27 10:16:53;;;;;;;56.38;29.10;;;2.90;75.30;;;2.06;60.59;94037.06;5018900;28;20211;-87
2021/12/27 10:19:24;;;;;;;54.63;27.35;;;2.90;75.30;;;2.06;60.95;94038.81;5051742;28;20273;-88
2021/12/27 10:21:54;;;;;;;52.30;26.27;;;2.90;75.30;;;2.03;60.82;94032.19;5035110;28;20188;-88
2021/12/27 10:24:31;;;;;;;56.67;26.40;;;2.90;75.40;;;2.02;60.41;94027.19;5038513;28;20246;-88
2021/12/27 10:27:01;;;;;;;54.83;28.30;;;2.90;76.20;;;2.04;60.69;94020.09;5022476;28;20215;-88